Time;durP1;ratioP1;P1;durP2;ratioP2;P2;SDS_P1;SDS_P2;PMS_P1;PMS_P2;Temp;Humidity;BMP_temperature;BMP_pressure;BME280_temperature;BME280_humidity;BME280_pressure;Samples;Min_cycle;Max_cycle;Signal;HPM_P1;HPM_P2
2021/07/08 00:01:54;;;;;;;14.43;10.82;;;;;;;;;;5053695;28;20057;-65
2021/07/08 00:04:22;;;;;;;15.75;10.85;;;;;;;;;;5053706;28;20052;-65
2021/07/08 00:06:49;;;;;;;14.25;11.23;;;;;;;;;;5053678;28;20055;-65
2021/07/08 00:09:15;;;;;;;15.25;10.93;;;;;;;;;;5053828;28;20048;-65
2021/07/08 00:11:42;;;;;;;13.27;9.65;;;;;;;;;;5068682;28;20045;-65
2021/07/08 00:14:09;;;;;;;14.35;9.40;;;;;;;;;;5072783;28;20050;-65
2021/07/08 00:16:36;;;;;;;17.90;10.27;;;;;;;;;;5062349;28;20063;-65
2021/07/08 00:19:04;;;;;;;16.48;10.30;;;;;;;;;;5053110;28;20140;-65
2021/07/08 00:21:32;;;;;;;12.75;9.45;;;;;;;;;;5053121;28;20053;-65
2021/07/08 00:23:59;;;;;;;13.18;9.10;;;;;;;;;;5053410;28;20422;-65
2021/07/08 00:26:25;;;;;;;13.48;9.40;;;;;;;;;;5052776;28;20041;-65
2021/07/08 00:28:52;;;;;;;13.07;9.70;;;;;;;;;;5052928;28;20052;-65
2021/07/08 00:31:20;;;;;;;13.18;8.32;;;;;;;;;;5053281;28;20686;-65
2021/07/08 00:33:47;;;;;;;11.43;8.10;;;;;;;;;;5053090;28;20464;-65
2021/07/08 00:36:14;;;;;;;11.77;7.78;;;;;;;;;;5052822;28;20055;-65
2021/07/08 00:38:42;;;;;;;11.98;9.20;;;;;;;;;;5051761;28;20056;-65
2021/07/08 00:41:09;;;;;;;14.88;9.48;;;;;;;;;;5053071;28;20053;-65
2021/07/08 00:43:35;;;;;;;20.55;11.55;;;;;;;;;;5052968;28;20049;-65
2021/07/08 00:46:03;;;;;;;13.40;10.13;;;;;;;;;;5052503;28;20048;-65
2021/07/08 00:48:29;;;;;;;14.13;10.52;;;;;;;;;;5052836;28;20080;-65
2021/07/08 00:50:56;;;;;;;13.15;8.63;;;;;;;;;;5052392;28;20049;-65
2021/07/08 00:53:23;;;;;;;15.45;11.18;;;;;;;;;;5052641;28;20049;-65
2021/07/08 00:55:57;;;;;;;14.77;11.00;;;;;;;;;;5052922;28;20493;-65
2021/07/08 00:58:24;;;;;;;16.13;11.93;;;;;;;;;;5052320;28;20052;-65
2021/07/08 01:00:51;;;;;;;12.88;10.00;;;;;;;;;;5052196;28;20052;-65
2021/07/08 01:03:18;;;;;;;15.68;11.02;;;;;;;;;;5052448;28;20048;-65
2021/07/08 01:05:46;;;;;;;14.25;10.40;;;;;;;;;;5052395;28;20049;-65
2021/07/08 01:08:14;;;;;;;15.55;10.48;;;;;;;;;;5052880;28;20402;-65
2021/07/08 01:10:42;;;;;;;16.92;10.30;;;;;;;;;;5052198;28;20136;-65
2021/07/08 01:13:10;;;;;;;15.55;10.02;;;;;;;;;;5052275;28;20500;-65
2021/07/08 01:15:36;;;;;;;14.60;9.98;;;;;;;;;;5051996;28;20044;-65
2021/07/08 01:18:04;;;;;;;12.43;9.05;;;;;;;;;;5052317;28;20049;-65
2021/07/08 01:20:34;;;;;;;10.82;8.23;;;;;;;;;;5052139;28;20052;-65
2021/07/08 01:23:02;;;;;;;14.68;10.80;;;;;;;;;;5054283;28;20044;-65
2021/07/08 01:25:31;;;;;;;11.25;8.30;;;;;;;;;;5069774;28;20048;-65
2021/07/08 01:27:59;;;;;;;11.30;8.48;;;;;;;;;;5051686;28;20052;-64
2021/07/08 01:30:27;;;;;;;11.27;8.27;;;;;;;;;;5051991;28;20492;-65
2021/07/08 01:32:53;;;;;;;14.65;9.85;;;;;;;;;;5051810;28;20051;-65
2021/07/08 01:35:20;;;;;;;13.73;8.73;;;;;;;;;;5051890;28;20599;-65
2021/07/08 01:37:46;;;;;;;12.93;9.40;;;;;;;;;;5051617;28;20060;-65
2021/07/08 01:40:17;;;;;;;15.68;11.52;;;;;;;;;;5054273;28;20378;-65
2021/07/08 01:42:43;;;;;;;10.95;8.50;;;;;;;;;;5072065;28;20428;-65
2021/07/08 01:45:13;;;;;;;16.17;10.85;;;;;;;;;;5071645;28;20044;-65
2021/07/08 01:47:39;;;;;;;13.73;10.65;;;;;;;;;;5071812;28;20522;-65
2021/07/08 01:50:07;;;;;;;12.90;9.82;;;;;;;;;;5071189;28;20062;-65
2021/07/08 01:52:33;;;;;;;15.45;11.05;;;;;;;;;;5071767;28;20777;-65
2021/07/08 01:55:00;;;;;;;14.70;11.18;;;;;;;;;;5071848;28;20131;-65
2021/07/08 01:57:28;;;;;;;20.50;14.32;;;;;;;;;;5071560;28;20045;-65
2021/07/08 01:59:55;;;;;;;19.45;12.77;;;;;;;;;;5071484;28;20156;-65
2021/07/08 02:02:22;;;;;;;17.40;11.88;;;;;;;;;;5071349;28;20052;-65
2021/07/08 02:04:48;;;;;;;13.73;10.52;;;;;;;;;;5071270;28;20051;-65
2021/07/08 02:07:14;;;;;;;18.63;11.02;;;;;;;;;;5071372;28;20061;-65
2021/07/08 02:09:41;;;;;;;13.32;10.77;;;;;;;;;;5071285;28;20049;-65
2021/07/08 02:12:09;;;;;;;18.60;11.77;;;;;;;;;;5071405;28;20396;-65
2021/07/08 02:14:37;;;;;;;16.70;11.50;;;;;;;;;;5071546;28;20060;-65
2021/07/08 02:17:05;;;;;;;15.75;10.15;;;;;;;;;;5071196;28;20049;-65
2021/07/08 02:19:31;;;;;;;16.35;10.32;;;;;;;;;;5071558;28;20048;-65
2021/07/08 02:21:58;;;;;;;14.98;10.63;;;;;;;;;;5071437;28;20052;-65
2021/07/08 02:24:24;;;;;;;14.13;9.88;;;;;;;;;;5071405;28;20059;-65
2021/07/08 02:26:51;;;;;;;15.68;9.80;;;;;;;;;;5071254;28;20049;-65
2021/07/08 02:29:17;;;;;;;15.55;10.40;;;;;;;;;;5071286;28;20049;-65
2021/07/08 02:31:45;;;;;;;13.32;9.55;;;;;;;;;;5071419;28;20052;-65
2021/07/08 02:34:11;;;;;;;11.65;8.77;;;;;;;;;;5071371;28;20135;-65
2021/07/08 02:36:38;;;;;;;14.07;10.27;;;;;;;;;;5070918;28;20045;-65
2021/07/08 02:39:06;;;;;;;15.68;11.02;;;;;;;;;;5071138;28;20056;-65
2021/07/08 02:41:32;;;;;;;15.43;10.85;;;;;;;;;;5071281;28;20218;-65
2021/07/08 02:43:59;;;;;;;14.98;10.15;;;;;;;;;;5071334;28;20404;-65
2021/07/08 02:46:25;;;;;;;14.25;10.55;;;;;;;;;;5070882;28;20048;-65
2021/07/08 02:48:53;;;;;;;14.77;11.30;;;;;;;;;;5071282;28;20055;-65
2021/07/08 02:51:20;;;;;;;13.63;9.70;;;;;;;;;;5071160;28;20489;-65
2021/07/08 02:53:46;;;;;;;13.40;10.13;;;;;;;;;;5071336;28;20053;-65
2021/07/08 02:56:13;;;;;;;13.15;9.77;;;;;;;;;;5071191;28;20041;-65
2021/07/08 02:58:39;;;;;;;14.23;10.25;;;;;;;;;;5070917;28;20088;-65
2021/07/08 03:01:06;;;;;;;11.68;9.23;;;;;;;;;;5071261;28;20481;-65
2021/07/08 03:03:33;;;;;;;11.70;9.30;;;;;;;;;;5074692;28;20052;-65
2021/07/08 03:06:01;;;;;;;11.60;8.65;;;;;;;;;;5074367;28;20048;-65
2021/07/08 03:08:27;;;;;;;14.38;9.73;;;;;;;;;;5074701;28;20424;-65
2021/07/08 03:10:54;;;;;;;11.90;9.02;;;;;;;;;;5074459;28;20098;-65
2021/07/08 03:13:21;;;;;;;10.93;8.48;;;;;;;;;;5074584;28;20139;-65
2021/07/08 03:15:47;;;;;;;12.88;9.45;;;;;;;;;;5074619;28;20059;-65
2021/07/08 03:18:13;;;;;;;13.85;10.35;;;;;;;;;;5074577;28;20062;-65
2021/07/08 03:20:45;;;;;;;11.43;8.32;;;;;;;;;;5074418;28;20064;-65
2021/07/08 03:23:13;;;;;;;12.23;8.82;;;;;;;;;;5074324;28;20045;-65
2021/07/08 03:25:39;;;;;;;11.07;8.00;;;;;;;;;;5074271;28;20044;-66
2021/07/08 03:28:06;;;;;;;11.07;8.75;;;;;;;;;;5074375;28;20170;-65
2021/07/08 03:30:33;;;;;;;12.13;9.48;;;;;;;;;;5073916;28;20409;-65
2021/07/08 03:33:02;;;;;;;11.70;8.30;;;;;;;;;;5074215;28;20045;-65
2021/07/08 03:35:29;;;;;;;13.05;8.30;;;;;;;;;;5074126;28;20137;-65
2021/07/08 03:37:56;;;;;;;13.05;8.63;;;;;;;;;;5074084;28;20045;-65
2021/07/08 03:40:24;;;;;;;12.10;9.45;;;;;;;;;;5074057;28;20045;-65
2021/07/08 03:42:52;;;;;;;11.15;8.30;;;;;;;;;;5074250;28;20048;-65
2021/07/08 03:45:19;;;;;;;10.10;7.93;;;;;;;;;;5073626;28;20056;-65
2021/07/08 03:47:45;;;;;;;9.10;7.45;;;;;;;;;;5074022;28;20386;-65
2021/07/08 03:50:13;;;;;;;13.93;9.55;;;;;;;;;;5073997;28;20559;-65
2021/07/08 03:52:42;;;;;;;10.73;8.18;;;;;;;;;;5073833;28;20056;-65
2021/07/08 03:55:10;;;;;;;9.10;7.65;;;;;;;;;;5073848;28;20402;-65
2021/07/08 03:57:52;;;;;;;9.57;7.93;;;;;;;;;;5073550;28;20047;-65
2021/07/08 04:00:18;;;;;;;10.20;8.15;;;;;;;;;;5073969;28;20070;-65
2021/07/08 04:02:45;;;;;;;10.38;8.05;;;;;;;;;;5073607;28;20048;-65
2021/07/08 04:05:11;;;;;;;15.13;8.65;;;;;;;;;;5073468;28;20056;-65
2021/07/08 04:07:38;;;;;;;12.73;8.40;;;;;;;;;;5073752;28;20492;-65
2021/07/08 04:10:06;;;;;;;13.35;8.38;;;;;;;;;;5073422;28;20468;-65
2021/07/08 04:12:32;;;;;;;9.82;6.68;;;;;;;;;;5073212;28;20053;-65
2021/07/08 04:15:00;;;;;;;12.90;7.68;;;;;;;;;;5073265;28;20048;-65
2021/07/08 04:17:27;;;;;;;11.35;8.23;;;;;;;;;;5073188;28;20048;-65
2021/07/08 04:19:53;;;;;;;9.07;7.10;;;;;;;;;;5073500;28;20044;-65
2021/07/08 04:22:20;;;;;;;10.10;7.55;;;;;;;;;;5073215;28;20049;-65
2021/07/08 04:24:46;;;;;;;11.27;8.25;;;;;;;;;;5073075;28;20053;-65
2021/07/08 04:27:13;;;;;;;13.80;8.68;;;;;;;;;;5073225;28;20044;-65
2021/07/08 04:29:39;;;;;;;13.55;9.40;;;;;;;;;;5073357;28;20048;-65
2021/07/08 04:32:08;;;;;;;11.50;8.43;;;;;;;;;;5073137;28;20048;-65
2021/07/08 04:34:34;;;;;;;10.60;8.13;;;;;;;;;;5073047;28;20048;-65
2021/07/08 04:37:03;;;;;;;11.68;8.32;;;;;;;;;;5072307;28;20037;-65
2021/07/08 04:39:29;;;;;;;9.65;7.22;;;;;;;;;;5062764;28;20110;-65
2021/07/08 04:41:56;;;;;;;10.70;6.70;;;;;;;;;;5053033;28;20366;-65
2021/07/08 04:44:22;;;;;;;10.27;7.95;;;;;;;;;;5053051;28;20049;-65
2021/07/08 04:46:49;;;;;;;11.82;7.90;;;;;;;;;;5052768;28;20083;-66
2021/07/08 04:49:17;;;;;;;9.63;6.90;;;;;;;;;;5052964;28;20072;-65
2021/07/08 04:51:43;;;;;;;12.05;7.15;;;;;;;;;;5052772;28;20417;-65
2021/07/08 04:54:10;;;;;;;10.80;8.45;;;;;;;;;;5052700;28;20466;-65
2021/07/08 04:56:36;;;;;;;12.05;6.55;;;;;;;;;;5052767;28;20052;-65
2021/07/08 04:59:03;;;;;;;11.00;7.82;;;;;;;;;;5052405;28;20477;-65
2021/07/08 05:01:29;;;;;;;8.48;6.70;;;;;;;;;;5052444;28;20445;-65
2021/07/08 05:03:59;;;;;;;13.80;6.85;;;;;;;;;;5052501;28;20057;-65
2021/07/08 05:06:27;;;;;;;9.80;7.07;;;;;;;;;;5052083;28;20049;-65
2021/07/08 05:08:54;;;;;;;10.57;6.90;;;;;;;;;;5052577;28;20504;-65
2021/07/08 05:11:20;;;;;;;8.75;5.82;;;;;;;;;;5052405;28;20049;-65
2021/07/08 05:13:47;;;;;;;7.60;4.97;;;;;;;;;;5052338;28;20048;-65
2021/07/08 05:16:13;;;;;;;8.18;5.35;;;;;;;;;;5052183;28;20048;-66
2021/07/08 05:18:40;;;;;;;7.82;5.70;;;;;;;;;;5052485;28;20045;-65
2021/07/08 05:21:06;;;;;;;6.63;5.47;;;;;;;;;;5052266;28;20045;-65
2021/07/08 05:23:35;;;;;;;7.28;4.43;;;;;;;;;;5051973;28;20047;-65
2021/07/08 05:26:02;;;;;;;7.25;4.20;;;;;;;;;;5051917;28;20151;-65
2021/07/08 05:28:28;;;;;;;5.80;3.90;;;;;;;;;;5051894;28;20053;-65
2021/07/08 05:30:55;;;;;;;4.97;3.88;;;;;;;;;;5066421;28;20048;-65
2021/07/08 05:33:21;;;;;;;4.63;2.95;;;;;;;;;;5071235;28;20049;-65
2021/07/08 05:35:48;;;;;;;4.43;2.75;;;;;;;;;;5071503;28;20051;-67
2021/07/08 05:38:14;;;;;;;4.45;2.80;;;;;;;;;;5071346;28;20048;-66
2021/07/08 05:40:42;;;;;;;3.70;2.60;;;;;;;;;;5068923;28;20048;-66
2021/07/08 05:43:09;;;;;;;5.18;2.42;;;;;;;;;;5071339;28;20080;-66
2021/07/08 05:45:37;;;;;;;5.00;2.67;;;;;;;;;;5071453;28;20058;-66
2021/07/08 05:48:04;;;;;;;3.65;2.58;;;;;;;;;;5071091;28;20123;-66
2021/07/08 05:50:30;;;;;;;3.42;2.30;;;;;;;;;;5071357;28;20048;-66
2021/07/08 05:52:57;;;;;;;4.10;2.20;;;;;;;;;;5071188;28;20064;-66
2021/07/08 05:55:23;;;;;;;4.90;2.28;;;;;;;;;;5071352;28;20048;-66
2021/07/08 05:57:51;;;;;;;3.75;2.28;;;;;;;;;;5070662;28;20118;-66
2021/07/08 06:00:19;;;;;;;3.33;1.90;;;;;;;;;;5070672;28;20401;-66
2021/07/08 06:02:46;;;;;;;3.53;2.22;;;;;;;;;;5070959;28;20457;-64
2021/07/08 06:05:13;;;;;;;3.38;2.05;;;;;;;;;;5070585;28;20048;-65
2021/07/08 06:07:40;;;;;;;4.75;2.03;;;;;;;;;;5070596;28;20095;-65
2021/07/08 06:10:08;;;;;;;4.00;2.15;;;;;;;;;;5070607;28;20048;-65
2021/07/08 06:12:35;;;;;;;3.83;1.88;;;;;;;;;;5070358;28;20044;-65
2021/07/08 06:15:03;;;;;;;2.85;1.90;;;;;;;;;;5067905;28;20047;-65
2021/07/08 06:17:30;;;;;;;4.50;2.00;;;;;;;;;;5070367;28;20040;-65
2021/07/08 06:19:57;;;;;;;4.88;2.03;;;;;;;;;;5071162;28;20044;-65
2021/07/08 06:22:23;;;;;;;2.90;1.60;;;;;;;;;;5068588;28;20558;-65
2021/07/08 06:24:50;;;;;;;2.42;1.58;;;;;;;;;;5070719;28;20472;-65
2021/07/08 06:27:16;;;;;;;4.13;1.85;;;;;;;;;;5070213;28;20048;-65
2021/07/08 06:29:43;;;;;;;3.63;1.70;;;;;;;;;;5067638;28;20051;-65
2021/07/08 06:32:11;;;;;;;5.55;1.80;;;;;;;;;;5070457;28;20404;-65
2021/07/08 06:34:38;;;;;;;2.42;1.30;;;;;;;;;;5070388;28;20072;-65
2021/07/08 06:37:04;;;;;;;2.65;1.75;;;;;;;;;;5073708;28;20045;-65
2021/07/08 06:39:31;;;;;;;2.95;1.30;;;;;;;;;;5074374;28;20107;-65
2021/07/08 06:41:57;;;;;;;2.88;1.50;;;;;;;;;;5073958;28;20482;-66
2021/07/08 06:44:24;;;;;;;2.13;1.10;;;;;;;;;;5074220;28;20048;-66
2021/07/08 06:46:53;;;;;;;2.95;1.33;;;;;;;;;;5073989;28;20037;-66
2021/07/08 06:49:21;;;;;;;2.42;1.48;;;;;;;;;;5074031;28;20467;-66
2021/07/08 06:51:48;;;;;;;4.05;1.27;;;;;;;;;;5073832;28;20406;-66
2021/07/08 06:54:15;;;;;;;1.60;1.05;;;;;;;;;;5073769;28;20076;-66
2021/07/08 06:56:42;;;;;;;3.90;1.38;;;;;;;;;;5073828;28;20046;-66
2021/07/08 06:59:09;;;;;;;5.22;1.55;;;;;;;;;;5073552;28;20041;-66
2021/07/08 07:01:35;;;;;;;3.42;1.30;;;;;;;;;;5073697;28;20397;-66
2021/07/08 07:04:02;;;;;;;4.32;1.35;;;;;;;;;;5070885;28;20048;-66
2021/07/08 07:06:30;;;;;;;1.95;1.20;;;;;;;;;;5073668;28;20044;-66
2021/07/08 07:08:56;;;;;;;1.50;1.10;;;;;;;;;;5073831;28;20067;-66
2021/07/08 07:11:23;;;;;;;2.63;0.88;;;;;;;;;;5070643;28;20069;-66
2021/07/08 07:13:50;;;;;;;2.60;1.27;;;;;;;;;;5073765;28;20520;-66
2021/07/08 07:16:16;;;;;;;2.22;1.13;;;;;;;;;;5073491;28;20464;-66
2021/07/08 07:18:43;;;;;;;2.35;1.20;;;;;;;;;;5070683;28;20050;-66
2021/07/08 07:21:10;;;;;;;2.45;1.23;;;;;;;;;;5073243;28;20048;-66
2021/07/08 07:23:38;;;;;;;3.03;1.42;;;;;;;;;;5072943;28;20123;-66
2021/07/08 07:26:05;;;;;;;2.53;1.42;;;;;;;;;;5072423;28;20465;-66
2021/07/08 07:28:32;;;;;;;2.45;1.30;;;;;;;;;;5074188;28;20044;-66
2021/07/08 07:30:58;;;;;;;3.65;1.30;;;;;;;;;;5074157;28;20048;-66
2021/07/08 07:33:25;;;;;;;3.22;1.50;;;;;;;;;;5074375;28;20544;-66
2021/07/08 07:35:51;;;;;;;1.70;1.25;;;;;;;;;;5068452;28;20396;-66
2021/07/08 07:38:18;;;;;;;3.35;1.38;;;;;;;;;;5072482;28;20055;-66
2021/07/08 07:40:46;;;;;;;3.33;1.50;;;;;;;;;;5066050;28;20053;-66
2021/07/08 07:43:13;;;;;;;3.13;1.33;;;;;;;;;;5074361;28;20048;-66
2021/07/08 07:45:41;;;;;;;2.70;1.30;;;;;;;;;;5074222;28;20131;-66
2021/07/08 07:48:08;;;;;;;2.85;1.30;;;;;;;;;;5073270;28;20124;-66
2021/07/08 07:50:36;;;;;;;2.42;1.10;;;;;;;;;;5073047;28;20549;-66
2021/07/08 07:53:03;;;;;;;3.30;1.20;;;;;;;;;;5073141;28;20131;-66
2021/07/08 07:55:30;;;;;;;2.95;0.90;;;;;;;;;;5073322;28;20059;-66
2021/07/08 07:57:59;;;;;;;2.10;1.10;;;;;;;;;;5073792;28;20049;-66
2021/07/08 08:00:26;;;;;;;3.35;1.10;;;;;;;;;;5073901;28;20056;-66
2021/07/08 08:02:53;;;;;;;5.22;1.00;;;;;;;;;;5073249;28;20385;-66
2021/07/08 08:05:33;;;;;;;2.63;0.98;;;;;;;;;;5072889;28;20401;-66
2021/07/08 08:10:44;;;;;;;1.80;0.90;;;;;;;;;;5072564;28;20059;-66
2021/07/08 08:13:12;;;;;;;3.55;1.50;;;;;;;;;;5072501;28;20059;-66
2021/07/08 08:15:39;;;;;;;2.08;1.10;;;;;;;;;;5072208;28;20044;-66
2021/07/08 08:18:07;;;;;;;1.50;1.00;;;;;;;;;;5072218;28;20048;-66
2021/07/08 08:20:33;;;;;;;4.22;1.02;;;;;;;;;;5072661;28;20045;-66
2021/07/08 08:23:00;;;;;;;4.15;1.13;;;;;;;;;;5073732;28;20131;-66
2021/07/08 08:25:27;;;;;;;3.40;1.10;;;;;;;;;;5073191;28;20052;-66
2021/07/08 08:27:53;;;;;;;3.47;1.35;;;;;;;;;;5072531;28;20040;-66
2021/07/08 08:30:21;;;;;;;2.85;1.20;;;;;;;;;;5064361;28;20056;-66
2021/07/08 08:32:48;;;;;;;3.47;1.10;;;;;;;;;;5053313;28;20398;-66
2021/07/08 08:35:14;;;;;;;2.22;1.40;;;;;;;;;;5053091;28;20053;-66
2021/07/08 08:37:43;;;;;;;2.00;1.10;;;;;;;;;;5067973;28;20058;-66
2021/07/08 08:40:11;;;;;;;2.78;1.20;;;;;;;;;;5057473;28;20143;-66
2021/07/08 08:42:38;;;;;;;1.77;0.73;;;;;;;;;;5072648;28;20044;-66
2021/07/08 08:45:07;;;;;;;2.83;1.10;;;;;;;;;;5073095;28;20048;-66
2021/07/08 08:47:51;;;;;;;3.03;0.93;;;;;;;;;;5072976;28;20045;-66
2021/07/08 08:50:18;;;;;;;2.25;0.90;;;;;;;;;;5073037;28;20048;-66
2021/07/08 08:52:45;;;;;;;0.95;0.70;;;;;;;;;;5072754;28;20062;-66
2021/07/08 08:55:12;;;;;;;1.75;0.88;;;;;;;;;;5069885;28;20056;-66
2021/07/08 08:57:40;;;;;;;2.10;1.02;;;;;;;;;;5052421;28;20406;-66
2021/07/08 09:00:52;;;;;;;4.35;1.17;;;;;;;;;;5051995;28;20507;-66
2021/07/08 09:03:22;;;;;;;1.67;0.95;;;;;;;;;;5052734;28;20797;-66
2021/07/08 09:05:58;;;;;;;1.83;1.20;;;;;;;;;;5052563;28;20063;-66
2021/07/08 09:08:25;;;;;;;2.08;1.13;;;;;;;;;;5052568;28;20051;-66
2021/07/08 09:11:07;;;;;;;2.28;1.35;;;;;;;;;;5052655;28;20057;-66
2021/07/08 09:13:54;;;;;;;3.15;1.17;;;;;;;;;;5052321;28;20068;-66
2021/07/08 09:16:22;;;;;;;3.78;1.35;;;;;;;;;;5052277;28;20410;-66
2021/07/08 09:19:02;;;;;;;1.85;0.90;;;;;;;;;;5052829;28;20049;-66
2021/07/08 09:21:30;;;;;;;1.00;0.63;;;;;;;;;;5052359;28;20049;-66
2021/07/08 09:24:15;;;;;;;2.60;0.90;;;;;;;;;;5052697;28;20048;-66
2021/07/08 09:26:44;;;;;;;1.63;0.98;;;;;;;;;;5052344;28;20049;-66
2021/07/08 09:29:12;;;;;;;1.20;0.68;;;;;;;;;;5052226;28;20404;-67
2021/07/08 09:31:39;;;;;;;2.22;0.70;;;;;;;;;;5052235;28;20064;-67
2021/07/08 09:34:15;;;;;;;2.17;0.70;;;;;;;;;;5051995;28;20049;-67
2021/07/08 09:36:42;;;;;;;3.67;1.05;;;;;;;;;;5051857;28;20059;-67
2021/07/08 09:39:10;;;;;;;2.28;0.93;;;;;;;;;;5070210;28;20047;-66
2021/07/08 09:41:46;;;;;;;3.05;1.27;;;;;;;;;;5069028;28;20387;-66
2021/07/08 09:44:23;;;;;;;2.10;1.20;;;;;;;;;;5052068;28;20048;-66
2021/07/08 09:46:51;;;;;;;2.70;1.17;;;;;;;;;;5052033;28;20478;-66
2021/07/08 09:49:19;;;;;;;6.22;1.35;;;;;;;;;;5051772;28;20059;-67
2021/07/08 09:51:46;;;;;;;1.73;0.90;;;;;;;;;;5051922;28;20492;-66
2021/07/08 09:54:15;;;;;;;3.88;1.20;;;;;;;;;;5051925;28;20052;-67
2021/07/08 09:56:46;;;;;;;4.03;1.20;;;;;;;;;;5051834;28;20453;-66
2021/07/08 09:59:13;;;;;;;2.70;1.23;;;;;;;;;;5051610;28;20416;-66
2021/07/08 10:01:40;;;;;;;3.30;1.20;;;;;;;;;;5051630;28;20485;-66
2021/07/08 10:04:07;;;;;;;1.38;0.93;;;;;;;;;;5051782;28;20366;-66
2021/07/08 10:06:36;;;;;;;3.22;1.05;;;;;;;;;;5051534;28;20056;-66
2021/07/08 10:09:03;;;;;;;1.77;1.25;;;;;;;;;;5051667;28;20055;-66
2021/07/08 10:11:30;;;;;;;2.58;1.10;;;;;;;;;;5051353;28;20079;-66
2021/07/08 10:13:59;;;;;;;2.20;0.73;;;;;;;;;;5051832;28;20462;-67
2021/07/08 10:16:27;;;;;;;1.98;0.80;;;;;;;;;;5051489;28;20053;-66
2021/07/08 10:18:56;;;;;;;1.80;0.73;;;;;;;;;;5051388;28;20041;-67
2021/07/08 10:21:23;;;;;;;1.50;0.95;;;;;;;;;;5051586;28;20051;-67
2021/07/08 10:23:51;;;;;;;1.40;0.95;;;;;;;;;;5051581;28;20482;-67
2021/07/08 10:26:17;;;;;;;1.80;1.00;;;;;;;;;;5051345;28;20482;-67
2021/07/08 10:28:46;;;;;;;2.70;0.95;;;;;;;;;;5051479;28;20049;-67
2021/07/08 10:31:14;;;;;;;2.10;1.08;;;;;;;;;;5051488;28;20059;-66
2021/07/08 10:33:41;;;;;;;2.20;1.10;;;;;;;;;;5051253;28;20053;-67
2021/07/08 10:36:08;;;;;;;2.75;1.00;;;;;;;;;;5051432;28;20060;-66
2021/07/08 10:38:37;;;;;;;2.63;1.23;;;;;;;;;;5058032;28;20060;-66
2021/07/08 10:41:37;;;;;;;1.15;0.80;;;;;;;;;;5069540;28;20068;-66
2021/07/08 10:44:05;;;;;;;3.80;1.00;;;;;;;;;;5066709;28;20048;-66
2021/07/08 10:46:35;;;;;;;1.40;0.90;;;;;;;;;;5071624;28;20261;-66
2021/07/08 10:49:11;;;;;;;2.17;1.10;;;;;;;;;;5071702;28;20051;-66
2021/07/08 10:51:38;;;;;;;2.75;1.08;;;;;;;;;;5071664;28;20057;-66
2021/07/08 10:54:25;;;;;;;1.13;0.95;;;;;;;;;;5071305;28;20044;-66
2021/07/08 10:56:51;;;;;;;;;;;;;;;;;;5071981;28;20059;-66
2021/07/08 10:59:19;;;;;;;2.50;1.05;;;;;;;;;;5071017;28;19920;-66
2021/07/08 11:01:48;;;;;;;1.73;1.10;;;;;;;;;;5071126;28;20050;-66
2021/07/08 11:04:16;;;;;;;2.90;1.02;;;;;;;;;;5071330;28;20491;-66
2021/07/08 11:06:44;;;;;;;2.83;1.05;;;;;;;;;;5071054;28;20497;-66
2021/07/08 11:09:25;;;;;;;1.85;1.00;;;;;;;;;;5071162;28;20452;-66
2021/07/08 11:12:04;;;;;;;3.17;1.30;;;;;;;;;;5067438;28;20040;-66
2021/07/08 11:14:33;;;;;;;2.95;1.15;;;;;;;;;;5067898;28;20121;-66
2021/07/08 11:17:03;;;;;;;3.20;1.42;;;;;;;;;;5069711;28;20044;-66
2021/07/08 11:19:38;;;;;;;2.90;1.30;;;;;;;;;;5069926;28;20075;-66
2021/07/08 11:22:08;;;;;;;4.13;1.30;;;;;;;;;;5070188;28;20130;-66
2021/07/08 11:24:44;;;;;;;3.00;1.27;;;;;;;;;;5073735;28;20131;-66
2021/07/08 11:27:12;;;;;;;2.08;1.42;;;;;;;;;;5070812;28;20047;-66
2021/07/08 11:29:41;;;;;;;2.38;1.40;;;;;;;;;;5073367;28;20405;-66
2021/07/08 11:32:22;;;;;;;5.28;1.38;;;;;;;;;;5073314;28;20045;-66
2021/07/08 11:34:54;;;;;;;5.50;1.30;;;;;;;;;;5073417;28;20080;-66
2021/07/08 11:37:23;;;;;;;3.25;2.03;;;;;;;;;;5073411;28;20113;-66
2021/07/08 11:39:55;;;;;;;5.60;1.95;;;;;;;;;;5073298;28;20145;-66
2021/07/08 11:42:23;;;;;;;3.78;2.22;;;;;;;;;;5073302;28;20480;-67
2021/07/08 11:44:52;;;;;;;4.43;2.10;;;;;;;;;;5073236;28;20052;-67
2021/07/08 11:47:19;;;;;;;2.72;1.55;;;;;;;;;;5073130;28;20044;-67
2021/07/08 11:49:47;;;;;;;3.72;1.90;;;;;;;;;;5072701;28;20040;-67
2021/07/08 11:52:19;;;;;;;2.83;1.50;;;;;;;;;;5072981;28;20409;-67
2021/07/08 11:54:59;;;;;;;2.53;1.80;;;;;;;;;;5072858;28;20424;-67
2021/07/08 11:57:26;;;;;;;3.58;1.40;;;;;;;;;;5072430;28;20048;-67
2021/07/08 11:59:55;;;;;;;3.38;1.40;;;;;;;;;;5072753;28;20733;-67
2021/07/08 12:02:32;;;;;;;3.10;2.30;;;;;;;;;;5072620;28;20041;-67
2021/07/08 12:05:16;;;;;;;2.60;1.60;;;;;;;;;;5071208;28;20045;-67
2021/07/08 12:07:44;;;;;;;4.95;2.00;;;;;;;;;;5071580;28;20432;-68
2021/07/08 12:10:11;;;;;;;2.60;1.52;;;;;;;;;;5072649;28;20059;-67
2021/07/08 12:12:40;;;;;;;4.15;2.00;;;;;;;;;;5072505;28;20109;-67
2021/07/08 12:15:09;;;;;;;3.22;1.70;;;;;;;;;;5072309;28;20047;-67
2021/07/08 12:17:36;;;;;;;3.72;1.88;;;;;;;;;;5072404;28;20105;-67
2021/07/08 12:20:07;;;;;;;4.57;1.70;;;;;;;;;;5072478;28;20041;-67
2021/07/08 12:22:34;;;;;;;2.40;1.40;;;;;;;;;;5070786;28;20497;-67
2021/07/08 12:25:01;;;;;;;3.50;2.67;;;;;;;;;;5073247;28;20064;-67
2021/07/08 12:27:27;;;;;;;2.95;1.90;;;;;;;;;;5071960;28;20437;-68
2021/07/08 12:29:56;;;;;;;2.63;1.40;;;;;;;;;;5071845;28;20102;-68
2021/07/08 12:32:25;;;;;;;2.97;1.60;;;;;;;;;;5072035;28;20044;-69
2021/07/08 12:34:55;;;;;;;2.60;1.80;;;;;;;;;;5071981;28;20044;-69
2021/07/08 12:37:23;;;;;;;4.47;2.60;;;;;;;;;;5071780;28;20102;-69
2021/07/08 12:39:55;;;;;;;7.97;7.28;;;;;;;;;;5072043;28;20511;-69
2021/07/08 12:42:22;;;;;;;3.97;2.38;;;;;;;;;;5071971;28;20045;-69
2021/07/08 12:44:51;;;;;;;2.85;1.60;;;;;;;;;;5072016;28;20668;-68
2021/07/08 12:47:17;;;;;;;3.55;1.77;;;;;;;;;;5071962;28;20197;-68
2021/07/08 12:49:46;;;;;;;2.60;1.55;;;;;;;;;;5069062;28;20082;-68
2021/07/08 12:52:13;;;;;;;2.28;1.13;;;;;;;;;;5071934;28;20048;-68
2021/07/08 12:54:40;;;;;;;2.08;1.38;;;;;;;;;;5071698;28;20047;-68
2021/07/08 12:57:08;;;;;;;4.15;1.50;;;;;;;;;;5071400;28;20056;-68
2021/07/08 12:59:35;;;;;;;2.30;1.50;;;;;;;;;;5071652;28;20044;-68
2021/07/08 13:02:02;;;;;;;1.95;1.30;;;;;;;;;;5071265;28;20072;-68
2021/07/08 13:04:30;;;;;;;2.97;1.50;;;;;;;;;;5071337;28;20044;-68
2021/07/08 13:07:00;;;;;;;3.33;1.30;;;;;;;;;;5071459;28;20058;-68
2021/07/08 13:09:28;;;;;;;3.17;1.73;;;;;;;;;;5068213;28;20067;-68
2021/07/08 13:11:54;;;;;;;3.03;1.50;;;;;;;;;;5071555;28;20687;-68
2021/07/08 13:14:23;;;;;;;5.22;1.77;;;;;;;;;;5072608;28;20495;-68
2021/07/08 13:17:04;;;;;;;2.97;1.50;;;;;;;;;;5072650;28;20091;-68
2021/07/08 13:19:30;;;;;;;3.47;1.27;;;;;;;;;;5072222;28;20055;-68
2021/07/08 13:21:57;;;;;;;1.83;1.30;;;;;;;;;;5072240;28;20152;-68
2021/07/08 13:24:26;;;;;;;1.73;1.27;;;;;;;;;;5072344;28;20473;-68
2021/07/08 13:26:52;;;;;;;2.55;1.25;;;;;;;;;;5072555;28;20063;-67
2021/07/08 13:29:24;;;;;;;3.00;1.35;;;;;;;;;;5072321;28;20159;-67
2021/07/08 13:31:54;;;;;;;3.63;1.73;;;;;;;;;;5072013;28;20048;-67
2021/07/08 13:34:24;;;;;;;1.73;1.23;;;;;;;;;;5072517;28;20052;-67
2021/07/08 13:36:52;;;;;;;2.40;1.17;;;;;;;;;;5071997;28;20056;-67
2021/07/08 13:39:18;;;;;;;2.67;1.27;;;;;;;;;;5072192;28;20132;-67
2021/07/08 13:41:48;;;;;;;1.88;1.27;;;;;;;;;;5072005;28;20067;-67
2021/07/08 13:44:16;;;;;;;2.03;1.20;;;;;;;;;;5072334;28;20052;-68
2021/07/08 13:46:43;;;;;;;2.53;1.30;;;;;;;;;;5071170;28;20055;-67
2021/07/08 13:49:11;;;;;;;1.88;1.30;;;;;;;;;;5072031;28;20083;-67
2021/07/08 13:51:45;;;;;;;2.35;1.65;;;;;;;;;;5071683;28;20049;-67
2021/07/08 13:54:11;;;;;;;1.52;1.30;;;;;;;;;;5072178;28;20100;-66
2021/07/08 13:56:38;;;;;;;2.35;1.48;;;;;;;;;;5071760;28;20059;-67
2021/07/08 13:59:06;;;;;;;3.85;1.70;;;;;;;;;;5071532;28;20045;-67
2021/07/08 14:01:33;;;;;;;2.53;1.70;;;;;;;;;;5071506;28;20066;-67
2021/07/08 14:04:01;;;;;;;2.45;1.33;;;;;;;;;;5070362;28;20098;-67
2021/07/08 14:06:27;;;;;;;2.53;1.38;;;;;;;;;;5070495;28;20051;-67
2021/07/08 14:08:54;;;;;;;3.15;1.50;;;;;;;;;;5070816;28;20048;-67
2021/07/08 14:11:22;;;;;;;2.00;1.60;;;;;;;;;;5070484;28;20070;-67
2021/07/08 14:13:53;;;;;;;2.58;1.30;;;;;;;;;;5070450;28;20044;-67
2021/07/08 14:16:21;;;;;;;1.65;1.45;;;;;;;;;;5070459;28;20067;-67
2021/07/08 14:18:48;;;;;;;2.92;1.48;;;;;;;;;;5070344;28;20037;-67
2021/07/08 14:21:15;;;;;;;1.63;1.00;;;;;;;;;;5070355;28;20072;-67
2021/07/08 14:23:41;;;;;;;3.35;2.38;;;;;;;;;;5070740;28;20498;-67
2021/07/08 14:26:09;;;;;;;2.45;1.50;;;;;;;;;;5070517;28;20067;-67
2021/07/08 14:28:36;;;;;;;3.15;1.73;;;;;;;;;;5070961;28;20044;-67
2021/07/08 14:31:03;;;;;;;1.60;1.00;;;;;;;;;;5067371;28;20045;-67
2021/07/08 14:33:31;;;;;;;1.90;1.25;;;;;;;;;;5070442;28;20463;-67
2021/07/08 14:35:58;;;;;;;1.92;0.80;;;;;;;;;;5070004;28;20053;-66
2021/07/08 14:38:24;;;;;;;1.55;0.55;;;;;;;;;;5070737;28;20761;-66
2021/07/08 14:40:53;;;;;;;2.35;0.93;;;;;;;;;;5070447;28;20044;-67
2021/07/08 14:43:32;;;;;;;1.73;0.90;;;;;;;;;;5070164;28;20048;-67
2021/07/08 14:46:04;;;;;;;0.68;0.60;;;;;;;;;;5070048;28;20076;-66
2021/07/08 14:48:33;;;;;;;1.17;0.68;;;;;;;;;;5067350;28;20044;-66